Time;durP1;ratioP1;P1;durP2;ratioP2;P2;SDS_P1;SDS_P2;PMS_P1;PMS_P2;Temp;Humidity;BMP_temperature;BMP_pressure;BME280_temperature;BME280_humidity;BME280_pressure;Samples;Min_cycle;Max_cycle;Signal;HPM_P1;HPM_P2
2022/11/30 00:01:09;;;;;;;16.50;14.70;;;;;;;1.86;100.00;97317.50;4985290;28;20289;-73
2022/11/30 00:03:37;;;;;;;17.00;15.20;;;;;;;1.87;100.00;97313.13;5027477;28;20798;-73
2022/11/30 00:06:07;;;;;;;16.17;14.47;;;;;;;1.78;100.00;97308.66;5030158;28;20204;-73
2022/11/30 00:08:35;;;;;;;15.83;14.20;;;;;;;1.72;100.00;97313.44;5001167;28;20238;-73
2022/11/30 00:11:07;;;;;;;18.13;15.03;;;;;;;1.77;100.00;97312.22;5005335;28;20204;-71
2022/11/30 00:13:35;;;;;;;16.80;15.20;;;;;;;1.78;100.00;97304.25;5028572;28;20203;-72
2022/11/30 00:16:03;;;;;;;17.03;15.30;;;;;;;1.72;100.00;97312.59;4989998;28;20270;-71
2022/11/30 00:18:31;;;;;;;16.17;14.47;;;;;;;1.75;100.00;97314.97;5004416;28;20988;-72
2022/11/30 00:21:00;;;;;;;15.50;13.83;;;;;;;1.83;100.00;97312.53;5007796;28;20211;-71
2022/11/30 00:23:32;;;;;;;17.37;15.33;;;;;;;1.84;100.00;97310.78;4998489;28;20250;-71
2022/11/30 00:26:02;;;;;;;16.07;14.43;;;;;;;1.88;100.00;97320.81;5008977;28;20207;-69
2022/11/30 00:28:30;;;;;;;17.17;14.87;;;;;;;1.84;100.00;97323.84;5028160;28;20235;-70
2022/11/30 00:30:59;;;;;;;16.10;14.43;;;;;;;1.88;100.00;97327.84;4987362;28;20782;-72
2022/11/30 00:33:27;;;;;;;18.30;15.70;;;;;;;1.81;100.00;97324.91;5023502;28;20231;-72
2022/11/30 00:35:57;;;;;;;19.27;16.27;;;;;;;1.65;100.00;97325.31;5008027;28;20714;-71
2022/11/30 00:38:25;;;;;;;16.67;14.90;;;;;;;1.69;100.00;97325.91;5003090;28;20238;-71
2022/11/30 00:40:55;;;;;;;20.80;16.77;;;;;;;1.68;100.00;97321.63;5029137;28;20219;-71
2022/11/30 00:43:23;;;;;;;19.43;15.20;;;;;;;1.68;100.00;97325.06;5004186;28;20211;-70
2022/11/30 00:45:50;;;;;;;22.13;16.67;;;;;;;1.64;100.00;97328.88;5026013;28;20204;-72
2022/11/30 00:48:18;;;;;;;18.63;16.60;;;;;;;1.69;100.00;97324.09;4992391;28;20286;-69
2022/11/30 00:50:47;;;;;;;18.87;16.47;;;;;;;1.65;100.00;97327.13;5026734;28;20203;-70
2022/11/30 00:53:15;;;;;;;22.40;16.97;;;;;;;1.63;100.00;97327.22;4983707;28;20211;-71
2022/11/30 00:55:43;;;;;;;19.67;17.57;;;;;;;1.62;100.00;97327.38;5027491;28;20223;-73
2022/11/30 00:58:12;;;;;;;18.13;16.23;;;;;;;1.61;100.00;97333.53;5008045;28;20250;-70
2022/11/30 01:00:40;;;;;;;21.43;17.00;;;;;;;1.61;100.00;97338.75;5022998;28;20208;-75
2022/11/30 01:03:08;;;;;;;19.20;16.00;;;;;;;1.58;100.00;97334.59;4990151;28;20211;-71
2022/11/30 01:05:35;;;;;;;20.73;16.63;;;;;;;1.57;100.00;97335.56;5026510;28;20199;-72
2022/11/30 01:08:04;;;;;;;17.87;15.97;;;;;;;1.62;100.00;97333.41;5002841;28;20285;-73
2022/11/30 01:10:32;;;;;;;20.30;16.97;;;;;;;1.66;100.00;97324.38;5027575;28;20475;-71
2022/11/30 01:13:00;;;;;;;18.17;15.53;;;;;;;1.64;100.00;97331.50;5003868;28;20214;-73
2022/11/30 01:15:29;;;;;;;18.90;15.47;;;;;;;1.65;100.00;97329.72;5022810;28;20583;-70
2022/11/30 01:17:59;;;;;;;18.47;15.70;;;;;;;1.57;100.00;97328.56;4989411;28;20227;-71
2022/11/30 01:20:26;;;;;;;16.43;14.77;;;;;;;1.65;100.00;97329.72;5024463;28;20200;-71
2022/11/30 01:22:54;;;;;;;19.30;15.47;;;;;;;1.62;100.00;97335.19;5033398;28;20221;-70
2022/11/30 01:25:22;;;;;;;19.23;16.23;;;;;;;1.64;100.00;97341.13;5006255;28;20204;-73
2022/11/30 01:27:50;;;;;;;19.97;16.80;;;;;;;1.64;100.00;97336.72;5009599;28;21161;-73
2022/11/30 01:30:18;;;;;;;20.97;17.40;;;;;;;1.67;100.00;97336.47;5025939;28;20204;-71
2022/11/30 01:32:47;;;;;;;19.73;15.67;;;;;;;1.70;100.00;97346.66;4992087;28;21197;-73
2022/11/30 01:35:16;;;;;;;21.27;16.47;;;;;;;1.71;100.00;97337.91;5029883;28;20223;-74
2022/11/30 01:37:43;;;;;;;21.13;16.53;;;;;;;1.70;100.00;97333.59;4981867;28;20243;-71
2022/11/30 01:40:12;;;;;;;18.63;15.87;;;;;;;1.76;100.00;97334.91;5005054;28;20218;-72
2022/11/30 01:42:45;;;;;;;16.90;15.07;;;;;;;1.87;100.00;97334.03;5029117;28;20207;-71
2022/11/30 01:45:13;;;;;;;19.00;15.07;;;;;;;1.96;100.00;97337.69;5008062;28;21279;-73
2022/11/30 01:47:42;;;;;;;19.13;15.97;;;;;;;1.88;100.00;97336.50;5033393;28;20227;-73
2022/11/30 01:50:13;;;;;;;18.60;14.73;;;;;;;1.93;100.00;97341.38;5028830;28;20939;-72
2022/11/30 01:52:43;;;;;;;19.30;15.67;;;;;;;1.92;100.00;97344.94;4992222;28;20219;-73
2022/11/30 01:55:16;;;;;;;21.93;17.00;;;;;;;1.95;100.00;97347.28;5028789;28;20224;-73
2022/11/30 01:57:47;;;;;;;19.50;15.50;;;;;;;1.91;100.00;97343.28;5029040;28;20231;-74
2022/11/30 02:00:15;;;;;;;22.40;16.87;;;;;;;1.94;100.00;97347.44;5003500;28;20784;-73
2022/11/30 02:02:49;;;;;;;23.07;18.27;;;;;;;1.96;100.00;97348.13;5028755;28;20273;-73
2022/11/30 02:05:18;;;;;;;19.90;16.57;;;;;;;1.93;100.00;97349.22;5029850;28;20215;-73
2022/11/30 02:07:46;;;;;;;20.80;17.20;;;;;;;1.99;100.00;97346.09;4990677;28;20602;-73
2022/11/30 02:10:15;;;;;;;22.23;18.20;;;;;;;2.01;100.00;97356.44;5026074;28;20214;-72
2022/11/30 02:12:53;;;;;;;24.17;19.33;;;;;;;2.00;100.00;97339.91;5029022;28;20211;-72
2022/11/30 02:15:22;;;;;;;23.77;18.87;;;;;;;1.95;100.00;97351.72;4994506;28;20235;-71
2022/11/30 02:17:53;;;;;;;23.67;18.90;;;;;;;1.90;100.00;97352.06;5003059;28;20378;-74
2022/11/30 02:20:50;;;;;;;22.23;18.73;;;;;;;1.93;100.00;97351.00;5029699;28;20208;-74
2022/11/30 02:23:50;;;;;;;26.23;21.17;;;;;;;1.78;100.00;97347.84;4973318;28;20212;-73
2022/11/30 02:26:30;;;;;;;24.73;19.77;;;;;;;1.77;100.00;97347.00;5022882;28;20611;-72
2022/11/30 02:29:06;;;;;;;29.87;21.07;;;;;;;1.72;100.00;97347.41;5023098;28;20757;-73
2022/11/30 02:31:38;;;;;;;25.37;19.27;;;;;;;1.67;100.00;97348.72;5014383;28;20207;-72
2022/11/30 02:34:07;;;;;;;30.13;21.97;;;;;;;1.63;100.00;97355.97;5029508;28;20219;-73
2022/11/30 02:36:35;;;;;;;26.30;21.13;;;;;;;1.64;100.00;97357.63;5029381;28;20238;-72
2022/11/30 02:39:04;;;;;;;27.47;21.33;;;;;;;1.67;100.00;97359.16;4993792;28;20301;-70
2022/11/30 02:41:36;;;;;;;30.80;22.53;;;;;;;1.70;100.00;97359.72;5028703;28;20216;-72
2022/11/30 02:44:07;;;;;;;29.53;22.60;;;;;;;1.60;100.00;97361.44;5030936;28;20203;-72
2022/11/30 02:46:41;;;;;;;30.93;22.20;;;;;;;1.67;100.00;97361.78;5001034;28;20212;-72
2022/11/30 02:49:13;;;;;;;27.13;20.73;;;;;;;1.70;100.00;97362.34;5006152;28;20873;-71
2022/11/30 02:51:41;;;;;;;29.63;22.00;;;;;;;1.67;100.00;97362.59;5024429;28;20204;-71
2022/11/30 02:54:09;;;;;;;30.30;21.33;;;;;;;1.61;100.00;97357.88;4991555;28;20218;-74
2022/11/30 02:56:36;;;;;;;37.30;25.10;;;;;;;1.50;100.00;97350.88;5030877;28;20773;-73
2022/11/30 02:59:05;;;;;;;33.43;25.20;;;;;;;1.49;100.00;97348.41;5025402;28;20819;-72
2022/11/30 03:01:33;;;;;;;36.13;25.50;;;;;;;1.46;100.00;97349.47;5019944;28;20203;-72
2022/11/30 03:04:01;;;;;;;32.53;23.90;;;;;;;1.48;100.00;97352.78;4986000;28;20210;-72
2022/11/30 03:06:29;;;;;;;32.53;23.63;;;;;;;1.54;100.00;97357.53;5030729;28;20200;-74
2022/11/30 03:08:56;;;;;;;33.83;23.73;;;;;;;1.54;100.00;97354.94;5023248;28;20232;-72
2022/11/30 03:11:24;;;;;;;39.43;25.93;;;;;;;1.46;100.00;97356.50;4989482;28;20223;-71
2022/11/30 03:13:52;;;;;;;39.20;24.80;;;;;;;1.48;100.00;97367.63;5028301;28;20222;-73
2022/11/30 03:16:21;;;;;;;31.37;22.63;;;;;;;1.51;100.00;97367.41;5006866;28;20249;-70
2022/11/30 03:18:48;;;;;;;35.73;25.83;;;;;;;1.34;100.00;97366.97;4980007;28;20231;-71
2022/11/30 03:21:16;;;;;;;36.97;25.03;;;;;;;1.35;100.00;97365.16;5027066;28;20253;-72
2022/11/30 03:23:44;;;;;;;36.40;24.17;;;;;;;1.40;100.00;97371.69;5008432;28;20215;-70
2022/11/30 03:26:11;;;;;;;33.33;24.60;;;;;;;1.41;100.00;97368.13;4993972;28;20730;-69
2022/11/30 03:28:39;;;;;;;38.23;27.30;;;;;;;1.42;100.00;97377.63;5026847;28;20935;-71
2022/11/30 03:31:06;;;;;;;37.87;26.40;;;;;;;1.35;100.00;97380.84;5027937;28;20219;-73
2022/11/30 03:33:36;;;;;;;36.03;24.60;;;;;;;1.29;100.00;97385.59;5021595;28;20204;-72
2022/11/30 03:36:05;;;;;;;38.67;27.23;;;;;;;1.30;100.00;97384.63;5017868;28;20251;-74
2022/11/30 03:38:33;;;;;;;35.93;25.20;;;;;;;1.26;100.00;97385.84;5029125;28;20235;-71
2022/11/30 03:41:01;;;;;;;38.23;25.30;;;;;;;1.26;100.00;97388.44;5017035;28;20215;-73
2022/11/30 03:43:29;;;;;;;37.50;26.03;;;;;;;1.25;100.00;97383.31;4954622;28;20210;-74
2022/11/30 03:45:57;;;;;;;40.40;26.97;;;;;;;1.22;100.00;97384.41;5021526;28;20214;-73
2022/11/30 03:48:26;;;;;;;38.90;27.37;;;;;;;1.23;100.00;97385.22;5026844;28;20216;-74
2022/11/30 03:50:55;;;;;;;39.50;26.23;;;;;;;1.22;100.00;97387.03;5004926;28;20729;-74
2022/11/30 03:53:24;;;;;;;39.33;25.93;;;;;;;1.14;100.00;97381.59;5023694;28;20204;-72
2022/11/30 03:55:53;;;;;;;41.40;26.43;;;;;;;1.17;100.00;97386.56;5029745;28;20231;-73
2022/11/30 03:58:21;;;;;;;41.43;27.47;;;;;;;1.25;100.00;97389.41;4989725;28;20365;-74
2022/11/30 04:00:49;;;;;;;35.70;25.13;;;;;;;1.22;100.00;97394.00;5028454;28;20204;-73
2022/11/30 04:03:16;;;;;;;39.90;26.73;;;;;;;1.20;100.00;97383.72;5026631;28;20215;-70
2022/11/30 04:05:44;;;;;;;43.10;27.20;;;;;;;1.25;100.00;97389.41;5008315;28;20211;-73
2022/11/30 04:08:13;;;;;;;37.73;25.83;;;;;;;1.27;100.00;97397.09;5026466;28;20230;-72
2022/11/30 04:10:41;;;;;;;36.80;24.60;;;;;;;1.26;100.00;97392.81;5029660;28;20207;-72
2022/11/30 04:13:08;;;;;;;36.80;24.93;;;;;;;1.33;100.00;97390.56;5028677;28;21047;-72
2022/11/30 04:15:36;;;;;;;37.67;24.37;;;;;;;1.33;100.00;97395.78;4992665;28;20235;-72
2022/11/30 04:18:04;;;;;;;37.17;24.87;;;;;;;1.32;100.00;97389.72;5029693;28;20261;-71
2022/11/30 04:20:32;;;;;;;36.90;24.23;;;;;;;1.30;100.00;97381.19;5027854;28;20207;-73
2022/11/30 04:23:07;;;;;;;42.05;31.30;;;;;;;1.25;100.00;97375.50;5003562;28;21405;-69
2022/11/30 04:25:37;;;;;;;38.70;26.80;;;;;;;1.15;100.00;97380.63;5024586;28;20196;-72
2022/11/30 04:28:04;;;;;;;36.43;26.50;;;;;;;1.13;100.00;97378.13;5028900;28;21090;-71
2022/11/30 04:30:32;;;;;;;38.20;25.93;;;;;;;1.09;100.00;97394.97;4984427;28;20215;-71
2022/11/30 04:33:00;;;;;;;36.20;24.23;;;;;;;1.04;100.00;97386.69;5027424;28;20204;-71
2022/11/30 04:35:28;;;;;;;35.20;25.07;;;;;;;1.08;100.00;97387.25;5022368;28;20798;-72
2022/11/30 04:37:56;;;;;;;39.37;26.13;;;;;;;1.05;100.00;97382.28;5000112;28;20257;-73
2022/11/30 04:40:23;;;;;;;36.93;25.20;;;;;;;1.04;100.00;97385.84;5026256;28;20465;-72
2022/11/30 04:42:52;;;;;;;32.97;24.47;;;;;;;1.02;100.00;97383.34;5030542;28;20203;-72
2022/11/30 04:45:20;;;;;;;34.70;25.03;;;;;;;1.03;100.00;97385.03;4972869;28;21728;-72
2022/11/30 04:47:48;;;;;;;39.43;25.50;;;;;;;1.07;100.00;97382.97;5026951;28;20219;-72
2022/11/30 04:50:15;;;;;;;36.53;25.37;;;;;;;1.01;100.00;97386.91;5025947;28;20203;-70
2022/11/30 04:52:43;;;;;;;38.40;25.60;;;;;;;1.08;100.00;97395.09;4999362;28;20203;-70
2022/11/30 04:55:11;;;;;;;36.67;24.03;;;;;;;1.11;100.00;97397.44;5026562;28;20652;-71
2022/11/30 04:57:38;;;;;;;37.60;25.43;;;;;;;1.05;100.00;97385.72;5030969;28;20223;-72
2022/11/30 05:00:09;;;;;;;37.10;24.37;;;;;;;1.11;100.00;97387.84;5032282;28;20207;-70
2022/11/30 05:02:37;;;;;;;37.27;26.63;;;;;;;1.12;100.00;97397.34;4980772;28;20387;-71
2022/11/30 05:05:05;;;;;;;38.27;26.30;;;;;;;1.09;100.00;97389.75;5023840;28;20208;-71
2022/11/30 05:07:33;;;;;;;38.13;26.03;;;;;;;1.05;100.00;97388.34;5004937;28;20743;-71
2022/11/30 05:10:01;;;;;;;34.87;23.50;;;;;;;1.09;100.00;97388.91;5032311;28;20199;-71
2022/11/30 05:12:28;;;;;;;38.43;26.53;;;;;;;1.07;100.00;97393.41;5031874;28;20357;-71
2022/11/30 05:14:56;;;;;;;36.97;26.47;;;;;;;1.06;100.00;97390.00;5030859;28;20227;-71
2022/11/30 05:17:25;;;;;;;34.43;24.83;;;;;;;1.07;100.00;97394.25;4982058;28;20890;-73
2022/11/30 05:19:53;;;;;;;34.80;25.07;;;;;;;1.08;100.00;97395.94;5008621;28;20207;-72
2022/11/30 05:22:20;;;;;;;34.60;24.23;;;;;;;1.10;100.00;97393.19;5003294;28;20424;-71
2022/11/30 05:24:48;;;;;;;35.30;25.67;;;;;;;1.06;100.00;97390.00;5036249;28;20208;-72
2022/11/30 05:27:16;;;;;;;34.60;24.70;;;;;;;1.11;100.00;97390.47;5032741;28;20227;-70
2022/11/30 05:29:49;;;;;;;33.03;23.93;;;;;;;1.17;100.00;97389.16;5031283;28;20210;-72
2022/11/30 05:32:16;;;;;;;35.47;24.23;;;;;;;1.20;100.00;97391.53;5028185;28;20639;-69
2022/11/30 05:34:45;;;;;;;36.10;24.47;;;;;;;1.28;100.00;97391.75;4991720;28;20219;-71
2022/11/30 05:37:18;;;;;;;34.27;24.70;;;;;;;1.20;100.00;97394.16;5026477;28;20270;-70
2022/11/30 05:39:46;;;;;;;35.17;24.70;;;;;;;1.19;100.00;97399.47;4984182;28;20676;-69
2022/11/30 05:42:13;;;;;;;33.63;24.33;;;;;;;1.25;100.00;97397.22;5030064;28;20208;-69
2022/11/30 05:44:42;;;;;;;33.87;25.57;;;;;;;1.25;100.00;97402.44;5024165;28;20253;-69
2022/11/30 05:47:10;;;;;;;34.23;26.23;;;;;;;1.32;100.00;97400.16;5015015;28;20301;-70
2022/11/30 05:49:37;;;;;;;34.10;24.30;;;;;;;1.32;100.00;97405.38;4994483;28;20256;-71
2022/11/30 05:52:06;;;;;;;32.93;25.60;;;;;;;1.28;100.00;97412.66;4977404;28;20621;-72
2022/11/30 05:54:34;;;;;;;30.93;24.67;;;;;;;1.32;100.00;97412.41;5002798;28;20236;-72
2022/11/30 05:57:02;;;;;;;30.30;22.00;;;;;;;1.27;100.00;97407.53;5029637;28;20770;-70
2022/11/30 05:59:30;;;;;;;29.07;22.23;;;;;;;1.33;100.00;97417.53;5008398;28;20269;-70
2022/11/30 06:01:57;;;;;;;31.80;23.07;;;;;;;1.34;100.00;97419.19;5029218;28;20290;-72
2022/11/30 06:04:26;;;;;;;31.93;22.67;;;;;;;1.39;100.00;97410.97;5010653;28;20203;-70
2022/11/30 06:06:54;;;;;;;38.50;26.73;;;;;;;1.37;100.00;97416.31;4981947;28;20298;-72
2022/11/30 06:09:24;;;;;;;43.60;29.60;;;;;;;1.35;100.00;97418.22;5024223;28;20964;-71
2022/11/30 06:11:51;;;;;;;38.03;25.30;;;;;;;1.35;100.00;97414.78;5001692;28;20215;-71
2022/11/30 06:14:19;;;;;;;46.60;29.37;;;;;;;1.46;100.00;97408.72;5002766;28;20367;-72
2022/11/30 06:16:47;;;;;;;51.60;31.13;;;;;;;1.46;100.00;97406.09;5027925;28;20402;-70
2022/11/30 06:19:14;;;;;;;48.20;34.23;;;;;;;1.46;100.00;97411.31;4998335;28;20307;-70
2022/11/30 06:21:42;;;;;;;49.83;32.63;;;;;;;1.48;100.00;97409.41;4982938;28;20226;-72
2022/11/30 06:24:10;;;;;;;42.73;28.93;;;;;;;1.45;100.00;97418.31;5029952;28;20207;-70
2022/11/30 06:26:39;;;;;;;40.17;27.63;;;;;;;1.46;100.00;97411.31;5001615;28;20532;-70
2022/11/30 06:29:07;;;;;;;34.50;25.30;;;;;;;1.40;100.00;97416.09;5031378;28;20212;-72
2022/11/30 06:31:35;;;;;;;41.90;27.70;;;;;;;1.38;100.00;97415.38;5001189;28;20215;-69
2022/11/30 06:34:03;;;;;;;32.70;23.37;;;;;;;1.34;100.00;97407.91;5032880;28;20780;-72
2022/11/30 06:36:31;;;;;;;28.67;21.13;;;;;;;1.44;100.00;97420.13;4976097;28;22134;-71
2022/11/30 06:39:02;;;;;;;31.93;22.27;;;;;;;1.30;100.00;97415.13;5030595;28;20510;-72
2022/11/30 06:41:30;;;;;;;30.13;21.47;;;;;;;1.32;100.00;97415.84;5024064;28;20241;-72
2022/11/30 06:43:59;;;;;;;27.30;21.60;;;;;;;1.25;100.00;97419.88;5007801;28;20218;-73
2022/11/30 06:46:27;;;;;;;35.50;26.60;;;;;;;1.32;100.00;97428.88;4997367;28;20341;-69
2022/11/30 06:48:55;;;;;;;29.17;21.97;;;;;;;1.35;100.00;97422.59;5030691;28;20223;-72
2022/11/30 06:51:23;;;;;;;29.13;22.33;;;;;;;1.27;100.00;97423.19;4985083;28;20207;-70
2022/11/30 06:53:51;;;;;;;29.77;22.03;;;;;;;1.30;100.00;97433.41;5024916;28;20493;-72
2022/11/30 06:56:19;;;;;;;30.00;22.60;;;;;;;1.21;100.00;97424.53;5027263;28;20215;-70
2022/11/30 06:58:47;;;;;;;30.93;22.17;;;;;;;1.22;100.00;97427.94;5003321;28;20235;-71
2022/11/30 07:01:17;;;;;;;31.57;23.90;;;;;;;1.19;100.00;97429.03;5017434;28;20251;-70
2022/11/30 07:03:45;;;;;;;32.67;23.97;;;;;;;1.22;100.00;97435.78;5020611;28;20713;-71
2022/11/30 07:06:15;;;;;;;31.93;22.53;;;;;;;1.25;100.00;97433.78;5026828;28;20646;-70
2022/11/30 07:08:43;;;;;;;30.37;23.23;;;;;;;1.36;100.00;97448.59;4981309;28;20235;-72
2022/11/30 07:11:12;;;;;;;30.70;22.70;;;;;;;1.30;100.00;97444.69;5029115;28;20196;-69
2022/11/30 07:13:40;;;;;;;29.60;24.00;;;;;;;1.38;100.00;97433.66;5006373;28;20207;-70
2022/11/30 07:16:13;;;;;;;34.27;23.70;;;;;;;1.29;100.00;97435.19;5028602;28;20210;-69
2022/11/30 07:18:42;;;;;;;36.53;26.17;;;;;;;1.33;100.00;97437.56;5016344;28;20227;-70
2022/11/30 07:21:10;;;;;;;34.03;25.90;;;;;;;1.37;100.00;97442.44;5028056;28;20204;-71
2022/11/30 07:26:24;;;;;;;32.30;24.67;;;;;;;1.34;100.00;97440.06;5022446;28;20218;-70
2022/11/30 07:28:56;;;;;;;30.30;23.27;;;;;;;1.36;100.00;97426.88;4977679;28;20313;-70
2022/11/30 07:31:26;;;;;;;30.90;22.10;;;;;;;1.37;100.00;97438.97;5005827;28;20266;-69
2022/11/30 07:33:56;;;;;;;27.87;21.70;;;;;;;1.36;100.00;97440.78;5028783;28;20797;-71
2022/11/30 07:36:28;;;;;;;29.37;23.47;;;;;;;1.35;100.00;97446.09;5028274;28;20203;-70
2022/11/30 07:38:56;;;;;;;25.93;20.90;;;;;;;1.35;100.00;97444.34;4997350;28;20219;-72
2022/11/30 07:41:23;;;;;;;30.40;23.07;;;;;;;1.35;100.00;97436.50;5028330;28;20771;-68
2022/11/30 07:43:51;;;;;;;34.03;24.00;;;;;;;1.42;100.00;97442.91;5010994;28;20203;-68
2022/11/30 07:46:19;;;;;;;29.90;23.13;;;;;;;1.53;100.00;97447.28;5028027;28;20210;-70
2022/11/30 07:48:46;;;;;;;27.53;22.43;;;;;;;1.39;100.00;97450.97;5008601;28;20239;-70
2022/11/30 07:51:17;;;;;;;31.33;25.47;;;;;;;1.35;100.00;97446.94;5025543;28;20202;-69
2022/11/30 07:53:45;;;;;;;29.57;22.83;;;;;;;1.43;100.00;97455.00;4993050;28;20215;-71
2022/11/30 07:56:15;;;;;;;27.70;21.87;;;;;;;1.49;100.00;97445.03;5030044;28;20211;-68
2022/11/30 07:58:42;;;;;;;26.37;21.30;;;;;;;1.55;100.00;97460.22;4991691;28;20235;-70
2022/11/30 08:01:12;;;;;;;27.60;23.00;;;;;;;1.57;100.00;97458.31;4977292;28;20219;-69
2022/11/30 08:03:40;;;;;;;32.93;24.17;;;;;;;1.55;100.00;97462.81;5024045;28;20643;-69
2022/11/30 08:06:10;;;;;;;30.53;23.53;;;;;;;1.41;100.00;97456.06;4983430;28;20215;-71
2022/11/30 08:08:40;;;;;;;30.20;23.00;;;;;;;1.41;100.00;97456.91;5023159;28;20216;-70
2022/11/30 08:11:09;;;;;;;28.50;23.17;;;;;;;1.47;100.00;97455.59;5029304;28;20215;-70
2022/11/30 08:13:37;;;;;;;28.97;22.30;;;;;;;1.47;100.00;97457.38;4994562;28;21532;-71
2022/11/30 08:16:07;;;;;;;29.33;22.53;;;;;;;1.52;100.00;97463.06;5025841;28;20204;-71
2022/11/30 08:18:35;;;;;;;31.23;23.13;;;;;;;1.54;100.00;97464.63;5026292;28;20235;-73
2022/11/30 08:21:05;;;;;;;30.47;23.83;;;;;;;1.59;100.00;97465.09;4978193;28;21021;-71
2022/11/30 08:23:35;;;;;;;32.50;24.50;;;;;;;1.54;100.00;97467.22;5002590;28;21052;-72
2022/11/30 08:26:06;;;;;;;29.23;23.17;;;;;;;1.57;100.00;97466.16;5028981;28;20206;-71
2022/11/30 08:28:34;;;;;;;28.53;22.30;;;;;;;1.61;100.00;97471.97;5025607;28;20908;-71
2022/11/30 08:31:03;;;;;;;30.40;23.13;;;;;;;1.51;100.00;97472.66;4995799;28;20670;-70
2022/11/30 08:33:32;;;;;;;30.90;23.43;;;;;;;1.59;100.00;97475.53;5030541;28;20203;-70
2022/11/30 08:36:06;;;;;;;27.63;22.70;;;;;;;1.54;100.00;97474.22;5004890;28;20203;-71
2022/11/30 08:38:34;;;;;;;29.93;23.10;;;;;;;1.62;100.00;97479.66;5008802;28;20222;-71
2022/11/30 08:41:01;;;;;;;33.10;24.57;;;;;;;1.48;100.00;97474.72;5033122;28;20219;-70
2022/11/30 08:43:31;;;;;;;28.77;23.00;;;;;;;1.44;100.00;97481.94;5029899;28;20207;-71
2022/11/30 08:45:58;;;;;;;30.40;23.50;;;;;;;1.53;100.00;97473.41;4979922;28;20476;-71
2022/11/30 08:48:26;;;;;;;29.20;22.47;;;;;;;1.62;100.00;97476.25;4997631;28;20311;-70
2022/11/30 08:50:54;;;;;;;26.20;22.23;;;;;;;1.67;100.00;97477.53;5028970;28;20212;-72
2022/11/30 08:53:22;;;;;;;27.27;22.07;;;;;;;1.71;100.00;97470.28;4997121;28;20242;-70
2022/11/30 08:55:55;;;;;;;28.73;22.20;;;;;;;1.67;100.00;97472.31;5029220;28;20200;-69
2022/11/30 08:58:23;;;;;;;26.57;21.13;;;;;;;1.69;100.00;97478.25;5015856;28;20593;-72
2022/11/30 09:00:53;;;;;;;25.00;20.97;;;;;;;1.80;100.00;97476.59;4982065;28;20582;-70
2022/11/30 09:03:21;;;;;;;28.60;22.17;;;;;;;1.77;100.00;97482.06;4998510;28;20222;-68
2022/11/30 09:05:48;;;;;;;29.63;23.27;;;;;;;1.77;100.00;97482.88;5029669;28;20207;-71
2022/11/30 09:08:16;;;;;;;26.43;21.83;;;;;;;1.87;100.00;97490.81;4997688;28;20900;-69
2022/11/30 09:10:44;;;;;;;27.93;22.20;;;;;;;1.82;100.00;97495.56;5030251;28;20390;-70
2022/11/30 09:13:12;;;;;;;28.00;22.40;;;;;;;1.82;100.00;97492.97;5030321;28;20524;-68
2022/11/30 09:15:41;;;;;;;25.53;21.73;;;;;;;1.82;100.00;97498.19;5029647;28;20295;-70
2022/11/30 09:18:12;;;;;;;26.83;21.87;;;;;;;1.94;100.00;97494.59;4982893;28;20227;-69
2022/11/30 09:20:40;;;;;;;29.33;23.20;;;;;;;1.93;100.00;97500.78;4997612;28;20391;-69
2022/11/30 09:23:08;;;;;;;26.57;21.77;;;;;;;1.95;100.00;97495.44;4982060;28;20243;-70
2022/11/30 09:25:36;;;;;;;26.30;21.17;;;;;;;1.93;100.00;97507.81;5033253;28;20215;-70
2022/11/30 09:28:03;;;;;;;27.03;22.23;;;;;;;2.04;100.00;97497.31;5003875;28;20224;-71
2022/11/30 09:30:38;;;;;;;26.33;21.50;;;;;;;2.02;100.00;97494.81;5033774;28;20199;-70
2022/11/30 09:33:06;;;;;;;27.23;22.57;;;;;;;2.05;100.00;97505.97;4995478;28;20305;-71
2022/11/30 09:35:35;;;;;;;24.47;20.60;;;;;;;2.06;100.00;97498.03;5001406;28;20207;-71
2022/11/30 09:38:03;;;;;;;27.50;21.80;;;;;;;2.09;100.00;97497.78;4999778;28;20228;-69
2022/11/30 09:40:31;;;;;;;25.00;20.63;;;;;;;2.09;100.00;97492.56;5030420;28;20220;-69
2022/11/30 09:43:06;;;;;;;26.03;22.07;;;;;;;1.98;100.00;97489.97;5002491;28;20814;-69
2022/11/30 09:45:34;;;;;;;28.10;22.33;;;;;;;1.96;100.00;97491.88;5030608;28;20205;-71
2022/11/30 09:48:20;;;;;;;31.70;23.20;;;;;;;1.88;100.00;97488.06;4996628;28;20914;-71
2022/11/30 09:50:50;;;;;;;28.23;22.83;;;;;;;1.84;100.00;97488.44;5002733;28;20203;-69
2022/11/30 09:53:21;;;;;;;25.53;21.40;;;;;;;1.92;100.00;97482.63;5027651;28;20200;-72
2022/11/30 09:55:56;;;;;;;29.27;21.77;;;;;;;1.92;100.00;97490.47;5003088;28;20211;-70
2022/11/30 09:58:30;;;;;;;27.83;23.50;;;;;;;2.15;100.00;97492.06;5033644;28;20219;-71
2022/11/30 10:00:57;;;;;;;36.20;27.90;;;;;;;2.24;100.00;97482.66;5002192;28;20202;-71
2022/11/30 10:03:31;;;;;;;31.53;24.30;;;;;;;2.14;100.00;97477.31;4990486;28;20216;-72
2022/11/30 10:06:05;;;;;;;29.30;22.33;;;;;;;2.06;100.00;97484.94;5006512;28;20199;-70
2022/11/30 10:08:43;;;;;;;29.93;22.37;;;;;;;2.13;100.00;97474.84;4965535;28;20308;-69
2022/11/30 10:11:30;;;;;;;27.30;23.10;;;;;;;1.84;100.00;97478.81;5031047;28;20200;-69
2022/11/30 10:14:14;;;;;;;26.47;21.57;;;;;;;1.92;100.00;97472.97;5002842;28;20224;-72
2022/11/30 10:16:48;;;;;;;34.10;30.43;;;;;;;2.04;100.00;97473.78;5026769;28;20578;-72
2022/11/30 10:19:25;;;;;;;29.83;25.13;;;;;;;2.19;100.00;97465.66;5030447;28;20223;-69
2022/11/30 10:22:03;;;;;;;42.30;37.27;;;;;;;2.14;100.00;97466.06;4989043;28;20215;-71
2022/11/30 10:24:52;;;;;;;40.03;33.40;;;;;;;2.25;100.00;97471.22;5027388;28;20207;-72
2022/11/30 10:27:31;;;;;;;36.80;29.77;;;;;;;2.25;100.00;97468.63;5029168;28;20231;-70
2022/11/30 10:30:00;;;;;;;29.87;22.00;;;;;;;2.39;100.00;97464.03;5002155;28;20211;-72
2022/11/30 10:32:32;;;;;;;31.13;24.97;;;;;;;2.18;100.00;97464.84;5027334;28;20807;-72
2022/11/30 10:35:11;;;;;;;27.63;21.77;;;;;;;2.26;100.00;97462.44;5032611;28;20721;-72
2022/11/30 10:37:41;;;;;;;25.40;22.37;;;;;;;2.24;100.00;97460.88;4994509;28;20235;-72
2022/11/30 10:40:13;;;;;;;37.17;33.20;;;;;;;2.14;100.00;97463.44;5030257;28;20235;-70
2022/11/30 10:42:43;;;;;;;48.40;43.17;;;;;;;2.25;100.00;97468.63;5030241;28;20204;-70
2022/11/30 10:45:12;;;;;;;25.20;21.93;;;;;;;2.05;100.00;97461.53;5007983;28;20210;-69
2022/11/30 10:47:45;;;;;;;28.77;23.07;;;;;;;1.98;100.00;97475.09;5029167;28;20215;-69
2022/11/30 10:50:15;;;;;;;24.00;19.67;;;;;;;2.04;100.00;97463.34;5027702;28;20203;-68
2022/11/30 10:52:47;;;;;;;26.93;20.97;;;;;;;2.00;100.00;97467.16;4992375;28;20871;-73
2022/11/30 10:55:18;;;;;;;24.90;19.53;;;;;;;2.05;100.00;97461.53;5026634;28;20238;-70
2022/11/30 10:57:47;;;;;;;26.80;21.97;;;;;;;1.90;100.00;97461.81;5031033;28;20249;-72
2022/11/30 11:00:17;;;;;;;25.93;20.40;;;;;;;1.92;100.00;97465.16;5002335;28;20243;-72
2022/11/30 11:02:46;;;;;;;27.93;21.93;;;;;;;2.02;100.00;97460.03;5030895;28;20206;-70
2022/11/30 11:05:20;;;;;;;32.90;25.57;;;;;;;2.17;100.00;97460.56;5029853;28;20195;-69
2022/11/30 11:07:52;;;;;;;31.50;23.13;;;;;;;2.12;100.00;97454.88;5030359;28;20220;-69
2022/11/30 11:10:21;;;;;;;35.47;25.00;;;;;;;2.09;100.00;97449.91;4986796;28;20211;-69
2022/11/30 11:12:51;;;;;;;24.80;19.13;;;;;;;2.09;100.00;97455.13;5028222;28;20207;-69
2022/11/30 11:15:20;;;;;;;24.80;21.27;;;;;;;2.15;100.00;97457.25;4997444;28;20231;-71
2022/11/30 11:17:48;;;;;;;25.67;21.00;;;;;;;2.29;100.00;97456.13;5026596;28;20251;-73
2022/11/30 11:20:29;;;;;;;25.83;19.83;;;;;;;2.22;100.00;97458.41;5027501;28;20868;-70
2022/11/30 11:22:58;;;;;;;23.00;18.63;;;;;;;2.11;100.00;97461.06;5025645;28;20238;-68
2022/11/30 11:25:31;;;;;;;21.30;18.63;;;;;;;2.15;100.00;97454.63;4971906;28;20220;-70
2022/11/30 11:28:04;;;;;;;22.87;19.13;;;;;;;2.10;100.00;97447.16;5028306;28;20649;-71
2022/11/30 11:30:33;;;;;;;22.30;19.63;;;;;;;2.06;100.00;97455.34;5002334;28;20315;-69